sensor_id;sensor_type;location;lat;lon;timestamp;temperature;humidity
23073;DHT22;67971;51.046;3.732;2023-04-24T00:00:15;11.00;99.90
23073;DHT22;67971;51.046;3.732;2023-04-24T00:02:42;11.00;99.90
23073;DHT22;67971;51.046;3.732;2023-04-24T00:05:12;11.00;99.90
23073;DHT22;67971;51.046;3.732;2023-04-24T00:07:39;11.00;99.90
23073;DHT22;67971;51.046;3.732;2023-04-24T00:10:06;10.90;99.90
23073;DHT22;67971;51.046;3.732;2023-04-24T00:12:32;10.90;99.90
23073;DHT22;67971;51.046;3.732;2023-04-24T00:14:58;10.90;99.90
23073;DHT22;67971;51.046;3.732;2023-04-24T00:17:23;10.80;99.90
23073;DHT22;67971;51.046;3.732;2023-04-24T00:19:49;10.80;99.90
23073;DHT22;67971;51.046;3.732;2023-04-24T00:22:25;10.90;99.90
23073;DHT22;67971;51.046;3.732;2023-04-24T00:24:50;10.90;99.90
23073;DHT22;67971;51.046;3.732;2023-04-24T00:27:16;11.00;99.90
23073;DHT22;67971;51.046;3.732;2023-04-24T00:29:41;11.00;99.90
23073;DHT22;67971;51.046;3.732;2023-04-24T00:32:07;11.00;99.90
23073;DHT22;67971;51.046;3.732;2023-04-24T00:34:33;10.90;99.90
23073;DHT22;67971;51.046;3.732;2023-04-24T00:36:59;11.00;99.90
23073;DHT22;67971;51.046;3.732;2023-04-24T00:39:25;10.90;99.90
23073;DHT22;67971;51.046;3.732;2023-04-24T00:41:51;10.90;99.90
23073;DHT22;67971;51.046;3.732;2023-04-24T00:44:16;10.90;99.90
23073;DHT22;67971;51.046;3.732;2023-04-24T00:46:43;10.90;99.90
23073;DHT22;67971;51.046;3.732;2023-04-24T00:49:08;10.90;99.90
23073;DHT22;67971;51.046;3.732;2023-04-24T00:51:34;10.80;99.90
23073;DHT22;67971;51.046;3.732;2023-04-24T00:54:01;10.70;99.90
23073;DHT22;67971;51.046;3.732;2023-04-24T00:56:27;10.70;99.90
23073;DHT22;67971;51.046;3.732;2023-04-24T00:58:53;10.70;99.90
23073;DHT22;67971;51.046;3.732;2023-04-24T01:01:20;10.80;99.90
23073;DHT22;67971;51.046;3.732;2023-04-24T01:03:46;10.80;99.90
23073;DHT22;67971;51.046;3.732;2023-04-24T01:06:14;10.80;99.90
23073;DHT22;67971;51.046;3.732;2023-04-24T01:08:41;10.80;99.90
23073;DHT22;67971;51.046;3.732;2023-04-24T01:11:07;10.80;99.90
23073;DHT22;67971;51.046;3.732;2023-04-24T01:13:33;10.80;99.90
23073;DHT22;67971;51.046;3.732;2023-04-24T01:15:59;10.80;99.90
23073;DHT22;67971;51.046;3.732;2023-04-24T01:18:26;10.80;99.90
23073;DHT22;67971;51.046;3.732;2023-04-24T01:20:55;10.80;99.90
23073;DHT22;67971;51.046;3.732;2023-04-24T01:23:22;10.70;99.90
23073;DHT22;67971;51.046;3.732;2023-04-24T01:25:49;10.70;99.90
23073;DHT22;67971;51.046;3.732;2023-04-24T01:28:16;10.70;99.90
23073;DHT22;67971;51.046;3.732;2023-04-24T01:30:42;10.70;99.90
23073;DHT22;67971;51.046;3.732;2023-04-24T01:33:08;10.70;99.90
23073;DHT22;67971;51.046;3.732;2023-04-24T01:35:33;10.70;99.90
23073;DHT22;67971;51.046;3.732;2023-04-24T01:38:01;10.60;99.90
23073;DHT22;67971;51.046;3.732;2023-04-24T01:40:27;10.70;99.90
23073;DHT22;67971;51.046;3.732;2023-04-24T01:42:53;10.80;99.90
23073;DHT22;67971;51.046;3.732;2023-04-24T01:45:18;10.80;99.90
23073;DHT22;67971;51.046;3.732;2023-04-24T01:47:45;10.80;99.90
23073;DHT22;67971;51.046;3.732;2023-04-24T01:50:10;10.70;99.90
23073;DHT22;67971;51.046;3.732;2023-04-24T01:52:36;10.70;99.90
23073;DHT22;67971;51.046;3.732;2023-04-24T01:55:03;10.70;99.90
23073;DHT22;67971;51.046;3.732;2023-04-24T01:57:30;10.50;99.90
23073;DHT22;67971;51.046;3.732;2023-04-24T01:59:56;10.40;99.90
23073;DHT22;67971;51.046;3.732;2023-04-24T02:02:22;10.50;99.90
23073;DHT22;67971;51.046;3.732;2023-04-24T02:04:50;10.40;99.90
23073;DHT22;67971;51.046;3.732;2023-04-24T02:07:16;10.30;99.90
23073;DHT22;67971;51.046;3.732;2023-04-24T02:09:41;10.30;99.90
23073;DHT22;67971;51.046;3.732;2023-04-24T02:12:07;10.30;99.90
23073;DHT22;67971;51.046;3.732;2023-04-24T02:14:33;10.40;99.90
23073;DHT22;67971;51.046;3.732;2023-04-24T02:16:59;10.40;99.90
23073;DHT22;67971;51.046;3.732;2023-04-24T02:19:24;10.40;99.90
23073;DHT22;67971;51.046;3.732;2023-04-24T02:21:50;10.40;99.90
23073;DHT22;67971;51.046;3.732;2023-04-24T02:24:16;10.30;99.90
23073;DHT22;67971;51.046;3.732;2023-04-24T02:26:41;10.30;99.90
23073;DHT22;67971;51.046;3.732;2023-04-24T02:29:07;10.20;99.90
23073;DHT22;67971;51.046;3.732;2023-04-24T02:31:33;10.30;99.90
23073;DHT22;67971;51.046;3.732;2023-04-24T02:33:59;10.40;99.90
23073;DHT22;67971;51.046;3.732;2023-04-24T02:36:24;10.40;99.90
23073;DHT22;67971;51.046;3.732;2023-04-24T02:38:50;10.50;99.90
23073;DHT22;67971;51.046;3.732;2023-04-24T02:41:16;10.50;99.90
23073;DHT22;67971;51.046;3.732;2023-04-24T02:43:41;10.50;99.90
23073;DHT22;67971;51.046;3.732;2023-04-24T02:46:07;10.50;99.90
23073;DHT22;67971;51.046;3.732;2023-04-24T02:48:33;10.50;99.90
23073;DHT22;67971;51.046;3.732;2023-04-24T02:50:58;10.40;99.90
23073;DHT22;67971;51.046;3.732;2023-04-24T02:53:24;10.40;99.90
23073;DHT22;67971;51.046;3.732;2023-04-24T02:55:50;10.40;99.90
23073;DHT22;67971;51.046;3.732;2023-04-24T02:58:16;10.40;99.90
23073;DHT22;67971;51.046;3.732;2023-04-24T03:00:42;10.50;99.90
23073;DHT22;67971;51.046;3.732;2023-04-24T03:03:08;10.50;99.90
23073;DHT22;67971;51.046;3.732;2023-04-24T03:05:34;10.40;99.90
23073;DHT22;67971;51.046;3.732;2023-04-24T03:08:00;10.40;99.90
23073;DHT22;67971;51.046;3.732;2023-04-24T03:10:26;10.40;99.90
23073;DHT22;67971;51.046;3.732;2023-04-24T03:12:52;10.30;99.90
23073;DHT22;67971;51.046;3.732;2023-04-24T03:15:17;10.20;99.90
23073;DHT22;67971;51.046;3.732;2023-04-24T03:17:43;10.30;99.90
23073;DHT22;67971;51.046;3.732;2023-04-24T03:20:09;10.20;99.90
23073;DHT22;67971;51.046;3.732;2023-04-24T03:22:35;10.10;99.90
23073;DHT22;67971;51.046;3.732;2023-04-24T03:25:01;10.10;99.90
23073;DHT22;67971;51.046;3.732;2023-04-24T03:27:27;10.10;99.90
23073;DHT22;67971;51.046;3.732;2023-04-24T03:29:52;10.10;99.90
23073;DHT22;67971;51.046;3.732;2023-04-24T03:32:21;10.00;99.90
23073;DHT22;67971;51.046;3.732;2023-04-24T03:34:48;10.00;99.90
23073;DHT22;67971;51.046;3.732;2023-04-24T03:37:14;10.00;99.90
23073;DHT22;67971;51.046;3.732;2023-04-24T03:39:40;9.90;99.90
23073;DHT22;67971;51.046;3.732;2023-04-24T03:42:05;10.10;99.90
23073;DHT22;67971;51.046;3.732;2023-04-24T03:44:31;10.20;99.90
23073;DHT22;67971;51.046;3.732;2023-04-24T03:46:58;10.10;99.90
23073;DHT22;67971;51.046;3.732;2023-04-24T03:49:23;10.10;99.90
23073;DHT22;67971;51.046;3.732;2023-04-24T03:51:49;10.00;99.90
23073;DHT22;67971;51.046;3.732;2023-04-24T03:54:15;10.00;99.90
23073;DHT22;67971;51.046;3.732;2023-04-24T03:56:40;9.90;99.90
23073;DHT22;67971;51.046;3.732;2023-04-24T03:59:06;9.90;99.90
23073;DHT22;67971;51.046;3.732;2023-04-24T04:01:32;9.90;99.90
23073;DHT22;67971;51.046;3.732;2023-04-24T04:03:57;10.00;99.90
23073;DHT22;67971;51.046;3.732;2023-04-24T04:06:23;10.00;99.90
23073;DHT22;67971;51.046;3.732;2023-04-24T04:08:48;10.10;99.90
23073;DHT22;67971;51.046;3.732;2023-04-24T04:11:14;10.00;99.90
23073;DHT22;67971;51.046;3.732;2023-04-24T04:13:40;10.00;99.90
23073;DHT22;67971;51.046;3.732;2023-04-24T04:16:06;10.00;99.90
23073;DHT22;67971;51.046;3.732;2023-04-24T04:18:31;10.00;99.90
23073;DHT22;67971;51.046;3.732;2023-04-24T04:20:57;10.00;99.90
23073;DHT22;67971;51.046;3.732;2023-04-24T04:23:23;9.90;99.90
23073;DHT22;67971;51.046;3.732;2023-04-24T04:25:49;9.90;99.90
23073;DHT22;67971;51.046;3.732;2023-04-24T04:28:15;9.80;99.90
23073;DHT22;67971;51.046;3.732;2023-04-24T04:30:41;9.70;99.90
23073;DHT22;67971;51.046;3.732;2023-04-24T04:33:06;9.70;99.90
23073;DHT22;67971;51.046;3.732;2023-04-24T04:35:33;9.70;99.90
23073;DHT22;67971;51.046;3.732;2023-04-24T04:37:59;9.70;99.90
23073;DHT22;67971;51.046;3.732;2023-04-24T04:40:25;9.70;99.90
23073;DHT22;67971;51.046;3.732;2023-04-24T04:42:51;9.80;99.90
23073;DHT22;67971;51.046;3.732;2023-04-24T04:45:18;9.80;99.90
23073;DHT22;67971;51.046;3.732;2023-04-24T04:47:44;9.80;99.90
23073;DHT22;67971;51.046;3.732;2023-04-24T04:50:10;9.80;99.90
23073;DHT22;67971;51.046;3.732;2023-04-24T04:52:36;9.80;99.90
23073;DHT22;67971;51.046;3.732;2023-04-24T04:55:02;9.80;99.90
23073;DHT22;67971;51.046;3.732;2023-04-24T04:57:28;9.80;99.90
23073;DHT22;67971;51.046;3.732;2023-04-24T04:59:54;9.80;99.90
23073;DHT22;67971;51.046;3.732;2023-04-24T05:02:20;9.70;99.90
23073;DHT22;67971;51.046;3.732;2023-04-24T05:04:46;9.70;99.90
23073;DHT22;67971;51.046;3.732;2023-04-24T05:07:11;9.80;99.90
23073;DHT22;67971;51.046;3.732;2023-04-24T05:09:37;9.80;99.90
23073;DHT22;67971;51.046;3.732;2023-04-24T05:12:03;9.80;99.90
23073;DHT22;67971;51.046;3.732;2023-04-24T05:14:29;9.70;99.90
23073;DHT22;67971;51.046;3.732;2023-04-24T05:16:54;9.80;99.90
23073;DHT22;67971;51.046;3.732;2023-04-24T05:19:20;9.90;99.90
23073;DHT22;67971;51.046;3.732;2023-04-24T05:21:46;9.90;99.90
23073;DHT22;67971;51.046;3.732;2023-04-24T05:24:11;9.90;99.90
23073;DHT22;67971;51.046;3.732;2023-04-24T05:26:37;9.80;99.90
23073;DHT22;67971;51.046;3.732;2023-04-24T05:29:03;9.90;99.90
23073;DHT22;67971;51.046;3.732;2023-04-24T05:31:29;9.90;99.90
23073;DHT22;67971;51.046;3.732;2023-04-24T05:33:55;9.90;99.90
23073;DHT22;67971;51.046;3.732;2023-04-24T05:36:20;9.80;99.90
23073;DHT22;67971;51.046;3.732;2023-04-24T05:38:46;9.90;99.90
23073;DHT22;67971;51.046;3.732;2023-04-24T05:41:12;9.90;99.90
23073;DHT22;67971;51.046;3.732;2023-04-24T05:43:37;9.90;99.90
23073;DHT22;67971;51.046;3.732;2023-04-24T05:46:07;10.00;99.90
23073;DHT22;67971;51.046;3.732;2023-04-24T05:48:33;10.00;99.90
23073;DHT22;67971;51.046;3.732;2023-04-24T05:50:58;10.00;99.90
23073;DHT22;67971;51.046;3.732;2023-04-24T05:53:24;10.00;99.90
23073;DHT22;67971;51.046;3.732;2023-04-24T05:55:50;10.00;99.90
23073;DHT22;67971;51.046;3.732;2023-04-24T05:58:15;10.00;99.90
23073;DHT22;67971;51.046;3.732;2023-04-24T06:00:41;10.00;99.90
23073;DHT22;67971;51.046;3.732;2023-04-24T06:03:08;10.10;99.90
23073;DHT22;67971;51.046;3.732;2023-04-24T06:05:34;10.10;99.90
23073;DHT22;67971;51.046;3.732;2023-04-24T06:08:00;10.10;99.90
23073;DHT22;67971;51.046;3.732;2023-04-24T06:10:26;10.10;99.90
23073;DHT22;67971;51.046;3.732;2023-04-24T06:12:51;10.10;99.90
23073;DHT22;67971;51.046;3.732;2023-04-24T06:15:17;10.20;99.90
23073;DHT22;67971;51.046;3.732;2023-04-24T06:17:43;10.20;99.90
23073;DHT22;67971;51.046;3.732;2023-04-24T06:20:08;10.20;99.90
23073;DHT22;67971;51.046;3.732;2023-04-24T06:22:36;10.30;99.90
23073;DHT22;67971;51.046;3.732;2023-04-24T06:25:02;10.40;99.90
23073;DHT22;67971;51.046;3.732;2023-04-24T06:27:28;10.40;99.90
23073;DHT22;67971;51.046;3.732;2023-04-24T06:29:53;10.50;99.90
23073;DHT22;67971;51.046;3.732;2023-04-24T06:32:24;10.50;99.90
23073;DHT22;67971;51.046;3.732;2023-04-24T06:34:51;10.60;99.90
23073;DHT22;67971;51.046;3.732;2023-04-24T06:37:20;10.70;99.90
23073;DHT22;67971;51.046;3.732;2023-04-24T06:39:47;10.90;99.90
23073;DHT22;67971;51.046;3.732;2023-04-24T06:42:13;11.10;99.90
23073;DHT22;67971;51.046;3.732;2023-04-24T06:44:38;11.20;99.90
23073;DHT22;67971;51.046;3.732;2023-04-24T06:47:08;11.20;99.90
23073;DHT22;67971;51.046;3.732;2023-04-24T06:49:38;11.20;99.90
23073;DHT22;67971;51.046;3.732;2023-04-24T06:52:04;11.30;99.90
23073;DHT22;67971;51.046;3.732;2023-04-24T06:54:30;11.40;99.90
23073;DHT22;67971;51.046;3.732;2023-04-24T06:56:57;11.40;99.90
23073;DHT22;67971;51.046;3.732;2023-04-24T06:59:23;11.60;99.90
23073;DHT22;67971;51.046;3.732;2023-04-24T07:01:49;11.90;99.90
23073;DHT22;67971;51.046;3.732;2023-04-24T07:04:16;12.00;99.90
23073;DHT22;67971;51.046;3.732;2023-04-24T07:06:42;11.90;99.90
23073;DHT22;67971;51.046;3.732;2023-04-24T07:09:08;11.90;99.90
23073;DHT22;67971;51.046;3.732;2023-04-24T07:11:35;11.90;99.90
23073;DHT22;67971;51.046;3.732;2023-04-24T07:14:00;11.90;99.90
23073;DHT22;67971;51.046;3.732;2023-04-24T07:16:26;11.60;99.90
23073;DHT22;67971;51.046;3.732;2023-04-24T07:18:52;11.50;99.90
23073;DHT22;67971;51.046;3.732;2023-04-24T07:21:18;11.40;99.90
23073;DHT22;67971;51.046;3.732;2023-04-24T07:23:43;11.20;99.90
23073;DHT22;67971;51.046;3.732;2023-04-24T07:26:09;11.20;99.90
23073;DHT22;67971;51.046;3.732;2023-04-24T07:28:35;11.40;99.90
23073;DHT22;67971;51.046;3.732;2023-04-24T07:31:01;11.50;99.90
23073;DHT22;67971;51.046;3.732;2023-04-24T07:33:27;11.60;99.90
23073;DHT22;67971;51.046;3.732;2023-04-24T07:35:52;11.70;99.90
23073;DHT22;67971;51.046;3.732;2023-04-24T07:38:18;11.70;99.90
23073;DHT22;67971;51.046;3.732;2023-04-24T07:40:48;11.80;99.90
23073;DHT22;67971;51.046;3.732;2023-04-24T07:43:14;11.80;99.90
23073;DHT22;67971;51.046;3.732;2023-04-24T07:45:40;11.80;99.90
23073;DHT22;67971;51.046;3.732;2023-04-24T07:48:06;11.80;99.90
23073;DHT22;67971;51.046;3.732;2023-04-24T07:50:32;11.80;99.90
23073;DHT22;67971;51.046;3.732;2023-04-24T07:52:58;11.60;99.90
23073;DHT22;67971;51.046;3.732;2023-04-24T07:55:23;11.40;99.90
23073;DHT22;67971;51.046;3.732;2023-04-24T07:57:49;11.40;99.90
23073;DHT22;67971;51.046;3.732;2023-04-24T08:00:15;11.50;99.90
23073;DHT22;67971;51.046;3.732;2023-04-24T08:02:41;11.50;99.90
23073;DHT22;67971;51.046;3.732;2023-04-24T08:05:07;11.50;99.90
23073;DHT22;67971;51.046;3.732;2023-04-24T08:07:33;11.70;99.90
23073;DHT22;67971;51.046;3.732;2023-04-24T08:09:58;12.80;99.90
23073;DHT22;67971;51.046;3.732;2023-04-24T08:12:29;14.70;99.90
23073;DHT22;67971;51.046;3.732;2023-04-24T08:14:54;16.40;99.90
23073;DHT22;67971;51.046;3.732;2023-04-24T08:17:20;17.00;99.90
23073;DHT22;67971;51.046;3.732;2023-04-24T08:19:46;17.80;99.90
23073;DHT22;67971;51.046;3.732;2023-04-24T08:22:16;18.00;99.90
23073;DHT22;67971;51.046;3.732;2023-04-24T08:24:42;17.20;99.90
23073;DHT22;67971;51.046;3.732;2023-04-24T08:27:09;16.20;99.90
23073;DHT22;67971;51.046;3.732;2023-04-24T08:29:35;15.00;99.90
23073;DHT22;67971;51.046;3.732;2023-04-24T08:32:00;14.20;99.90
23073;DHT22;67971;51.046;3.732;2023-04-24T08:34:26;13.50;99.90
23073;DHT22;67971;51.046;3.732;2023-04-24T08:36:52;14.30;99.90
23073;DHT22;67971;51.046;3.732;2023-04-24T08:39:17;15.10;99.90
23073;DHT22;67971;51.046;3.732;2023-04-24T08:41:44;15.20;99.90
23073;DHT22;67971;51.046;3.732;2023-04-24T08:44:11;15.10;99.90
23073;DHT22;67971;51.046;3.732;2023-04-24T08:46:39;14.40;99.90
23073;DHT22;67971;51.046;3.732;2023-04-24T08:49:06;14.10;99.90
23073;DHT22;67971;51.046;3.732;2023-04-24T08:51:31;14.30;99.90
23073;DHT22;67971;51.046;3.732;2023-04-24T08:53:58;14.50;99.90
23073;DHT22;67971;51.046;3.732;2023-04-24T08:56:25;16.00;99.90
23073;DHT22;67971;51.046;3.732;2023-04-24T08:58:53;16.80;99.90
23073;DHT22;67971;51.046;3.732;2023-04-24T09:01:19;17.60;99.90
23073;DHT22;67971;51.046;3.732;2023-04-24T09:03:49;18.00;99.90
23073;DHT22;67971;51.046;3.732;2023-04-24T09:06:16;16.80;99.90
23073;DHT22;67971;51.046;3.732;2023-04-24T09:08:43;15.60;99.90
23073;DHT22;67971;51.046;3.732;2023-04-24T09:11:11;15.10;99.90
23073;DHT22;67971;51.046;3.732;2023-04-24T09:13:37;14.70;99.90
23073;DHT22;67971;51.046;3.732;2023-04-24T09:16:03;14.40;99.90
23073;DHT22;67971;51.046;3.732;2023-04-24T09:18:29;14.00;99.90
23073;DHT22;67971;51.046;3.732;2023-04-24T09:21:06;13.90;99.90
23073;DHT22;67971;51.046;3.732;2023-04-24T09:23:32;13.80;99.90
23073;DHT22;67971;51.046;3.732;2023-04-24T09:25:59;13.90;99.90
23073;DHT22;67971;51.046;3.732;2023-04-24T09:28:46;13.90;99.90
23073;DHT22;67971;51.046;3.732;2023-04-24T09:31:17;13.70;99.90
23073;DHT22;67971;51.046;3.732;2023-04-24T09:34:01;14.20;99.90
23073;DHT22;67971;51.046;3.732;2023-04-24T09:36:33;14.70;99.90
23073;DHT22;67971;51.046;3.732;2023-04-24T09:39:01;15.20;99.90
23073;DHT22;67971;51.046;3.732;2023-04-24T09:41:27;15.30;99.90
23073;DHT22;67971;51.046;3.732;2023-04-24T09:43:55;15.30;99.90
23073;DHT22;67971;51.046;3.732;2023-04-24T09:46:29;15.40;99.90
23073;DHT22;67971;51.046;3.732;2023-04-24T09:48:56;15.80;99.90
23073;DHT22;67971;51.046;3.732;2023-04-24T09:51:33;15.40;99.90
23073;DHT22;67971;51.046;3.732;2023-04-24T09:54:01;15.20;99.90
23073;DHT22;67971;51.046;3.732;2023-04-24T09:56:26;14.90;99.90
23073;DHT22;67971;51.046;3.732;2023-04-24T09:58:52;14.50;99.90
23073;DHT22;67971;51.046;3.732;2023-04-24T10:01:30;14.40;99.90
23073;DHT22;67971;51.046;3.732;2023-04-24T10:03:56;15.10;99.90
23073;DHT22;67971;51.046;3.732;2023-04-24T10:06:22;17.80;99.90
23073;DHT22;67971;51.046;3.732;2023-04-24T10:08:48;19.10;99.90
23073;DHT22;67971;51.046;3.732;2023-04-24T10:11:16;20.00;99.90
23073;DHT22;67971;51.046;3.732;2023-04-24T10:13:43;19.40;99.90
23073;DHT22;67971;51.046;3.732;2023-04-24T10:16:09;18.20;99.90
23073;DHT22;67971;51.046;3.732;2023-04-24T10:18:35;17.40;99.90
23073;DHT22;67971;51.046;3.732;2023-04-24T10:21:01;16.80;99.90
23073;DHT22;67971;51.046;3.732;2023-04-24T10:23:28;16.00;99.90
23073;DHT22;67971;51.046;3.732;2023-04-24T10:25:55;16.10;99.90
23073;DHT22;67971;51.046;3.732;2023-04-24T10:28:22;16.30;99.90
23073;DHT22;67971;51.046;3.732;2023-04-24T10:30:50;16.60;99.90
23073;DHT22;67971;51.046;3.732;2023-04-24T10:33:17;16.80;99.90
23073;DHT22;67971;51.046;3.732;2023-04-24T10:35:46;16.50;99.90
23073;DHT22;67971;51.046;3.732;2023-04-24T10:38:16;16.50;99.90
23073;DHT22;67971;51.046;3.732;2023-04-24T10:40:43;17.80;99.90
23073;DHT22;67971;51.046;3.732;2023-04-24T10:43:10;18.00;99.90
23073;DHT22;67971;51.046;3.732;2023-04-24T10:46:03;19.00;99.90
23073;DHT22;67971;51.046;3.732;2023-04-24T10:48:30;18.50;99.90
23073;DHT22;67971;51.046;3.732;2023-04-24T10:50:56;17.70;99.90
23073;DHT22;67971;51.046;3.732;2023-04-24T10:53:28;16.70;99.90
23073;DHT22;67971;51.046;3.732;2023-04-24T10:56:08;17.90;99.90
23073;DHT22;67971;51.046;3.732;2023-04-24T10:58:49;18.60;99.90
23073;DHT22;67971;51.046;3.732;2023-04-24T11:01:40;18.40;99.90
23073;DHT22;67971;51.046;3.732;2023-04-24T11:04:32;17.70;99.90
23073;DHT22;67971;51.046;3.732;2023-04-24T11:06:58;19.30;99.90
23073;DHT22;67971;51.046;3.732;2023-04-24T11:09:27;22.10;99.90
23073;DHT22;67971;51.046;3.732;2023-04-24T11:12:06;22.30;99.90
23073;DHT22;67971;51.046;3.732;2023-04-24T11:17:31;23.00;99.90
23073;DHT22;67971;51.046;3.732;2023-04-24T11:20:10;23.40;99.90
23073;DHT22;67971;51.046;3.732;2023-04-24T11:22:39;22.60;99.90
23073;DHT22;67971;51.046;3.732;2023-04-24T11:25:06;21.40;99.90
23073;DHT22;67971;51.046;3.732;2023-04-24T11:27:43;20.30;99.90
23073;DHT22;67971;51.046;3.732;2023-04-24T11:30:10;20.00;99.90
23073;DHT22;67971;51.046;3.732;2023-04-24T11:32:39;19.70;99.90
23073;DHT22;67971;51.046;3.732;2023-04-24T11:35:23;19.00;99.90
23073;DHT22;67971;51.046;3.732;2023-04-24T11:37:52;18.30;99.90
23073;DHT22;67971;51.046;3.732;2023-04-24T11:40:19;19.30;99.90
23073;DHT22;67971;51.046;3.732;2023-04-24T11:42:51;21.10;99.90
23073;DHT22;67971;51.046;3.732;2023-04-24T11:45:25;22.20;99.90
23073;DHT22;67971;51.046;3.732;2023-04-24T11:47:51;22.40;99.90
23073;DHT22;67971;51.046;3.732;2023-04-24T11:50:19;23.50;99.90
23073;DHT22;67971;51.046;3.732;2023-04-24T11:52:47;23.10;99.90
23073;DHT22;67971;51.046;3.732;2023-04-24T11:57:46;25.30;99.90
23073;DHT22;67971;51.046;3.732;2023-04-24T12:00:20;24.50;99.90
23073;DHT22;67971;51.046;3.732;2023-04-24T12:02:46;23.50;99.90
23073;DHT22;67971;51.046;3.732;2023-04-24T12:05:29;23.10;99.90
23073;DHT22;67971;51.046;3.732;2023-04-24T12:07:57;24.20;99.90
23073;DHT22;67971;51.046;3.732;2023-04-24T12:10:24;23.90;99.90
23073;DHT22;67971;51.046;3.732;2023-04-24T12:12:51;24.70;99.90
23073;DHT22;67971;51.046;3.732;2023-04-24T12:15:19;22.90;99.90
23073;DHT22;67971;51.046;3.732;2023-04-24T12:17:45;21.60;99.90
23073;DHT22;67971;51.046;3.732;2023-04-24T12:20:12;21.00;99.90
23073;DHT22;67971;51.046;3.732;2023-04-24T12:22:45;20.70;99.90
23073;DHT22;67971;51.046;3.732;2023-04-24T12:25:12;20.20;99.90
23073;DHT22;67971;51.046;3.732;2023-04-24T12:27:38;20.00;99.90
23073;DHT22;67971;51.046;3.732;2023-04-24T12:30:05;19.80;99.90
23073;DHT22;67971;51.046;3.732;2023-04-24T12:32:31;20.20;99.90
23073;DHT22;67971;51.046;3.732;2023-04-24T12:34:57;21.40;99.90
23073;DHT22;67971;51.046;3.732;2023-04-24T12:37:31;20.30;99.90
23073;DHT22;67971;51.046;3.732;2023-04-24T12:40:06;19.60;99.90
23073;DHT22;67971;51.046;3.732;2023-04-24T12:42:33;20.00;99.90
23073;DHT22;67971;51.046;3.732;2023-04-24T12:45:06;20.50;99.90
23073;DHT22;67971;51.046;3.732;2023-04-24T12:47:32;21.90;99.90
23073;DHT22;67971;51.046;3.732;2023-04-24T12:49:59;23.20;99.20
23073;DHT22;67971;51.046;3.732;2023-04-24T12:52:26;23.80;99.20
23073;DHT22;67971;51.046;3.732;2023-04-24T12:55:00;24.10;97.90
23073;DHT22;67971;51.046;3.732;2023-04-24T12:57:28;24.00;97.40
23073;DHT22;67971;51.046;3.732;2023-04-24T12:59:58;23.20;98.80
23073;DHT22;67971;51.046;3.732;2023-04-24T13:02:25;22.70;98.50
23073;DHT22;67971;51.046;3.732;2023-04-24T13:04:53;23.10;98.40
23073;DHT22;67971;51.046;3.732;2023-04-24T13:07:19;24.20;97.30
23073;DHT22;67971;51.046;3.732;2023-04-24T13:09:47;24.20;97.00
23073;DHT22;67971;51.046;3.732;2023-04-24T13:12:13;22.30;97.50
23073;DHT22;67971;51.046;3.732;2023-04-24T13:14:38;21.70;97.60
23073;DHT22;67971;51.046;3.732;2023-04-24T13:17:04;22.00;98.60
23073;DHT22;67971;51.046;3.732;2023-04-24T13:19:36;22.20;98.60
23073;DHT22;67971;51.046;3.732;2023-04-24T13:22:03;22.50;98.20
23073;DHT22;67971;51.046;3.732;2023-04-24T13:24:29;22.80;96.50
23073;DHT22;67971;51.046;3.732;2023-04-24T13:26:56;22.80;97.60
23073;DHT22;67971;51.046;3.732;2023-04-24T13:29:22;24.60;98.00
23073;DHT22;67971;51.046;3.732;2023-04-24T13:31:51;26.30;96.20
23073;DHT22;67971;51.046;3.732;2023-04-24T13:34:17;25.50;95.50
23073;DHT22;67971;51.046;3.732;2023-04-24T13:36:43;25.50;95.80
23073;DHT22;67971;51.046;3.732;2023-04-24T13:39:09;26.40;94.80
23073;DHT22;67971;51.046;3.732;2023-04-24T13:41:35;26.90;92.60
23073;DHT22;67971;51.046;3.732;2023-04-24T13:44:02;27.00;93.10
23073;DHT22;67971;51.046;3.732;2023-04-24T13:46:28;27.10;92.40
23073;DHT22;67971;51.046;3.732;2023-04-24T13:48:54;27.00;91.80
23073;DHT22;67971;51.046;3.732;2023-04-24T13:51:20;26.60;90.80
23073;DHT22;67971;51.046;3.732;2023-04-24T13:53:45;26.70;90.90
23073;DHT22;67971;51.046;3.732;2023-04-24T13:56:14;27.70;90.70
23073;DHT22;67971;51.046;3.732;2023-04-24T13:58:40;28.00;90.90
23073;DHT22;67971;51.046;3.732;2023-04-24T14:01:06;29.10;90.10
23073;DHT22;67971;51.046;3.732;2023-04-24T14:03:33;28.90;90.30
23073;DHT22;67971;51.046;3.732;2023-04-24T14:05:59;27.60;91.10
23073;DHT22;67971;51.046;3.732;2023-04-24T14:08:25;25.40;91.30
23073;DHT22;67971;51.046;3.732;2023-04-24T14:10:50;24.10;92.60
23073;DHT22;67971;51.046;3.732;2023-04-24T14:13:16;23.80;91.10
23073;DHT22;67971;51.046;3.732;2023-04-24T14:15:42;24.00;92.10
23073;DHT22;67971;51.046;3.732;2023-04-24T14:18:08;25.00;91.60
23073;DHT22;67971;51.046;3.732;2023-04-24T14:20:34;25.30;91.30
23073;DHT22;67971;51.046;3.732;2023-04-24T14:23:00;23.80;92.40
23073;DHT22;67971;51.046;3.732;2023-04-24T14:25:26;21.90;93.80
23073;DHT22;67971;51.046;3.732;2023-04-24T14:27:52;20.70;95.10
23073;DHT22;67971;51.046;3.732;2023-04-24T14:30:18;21.10;94.60
23073;DHT22;67971;51.046;3.732;2023-04-24T14:32:44;22.40;93.50
23073;DHT22;67971;51.046;3.732;2023-04-24T14:35:10;21.70;93.80
23073;DHT22;67971;51.046;3.732;2023-04-24T14:37:36;20.60;94.80
23073;DHT22;67971;51.046;3.732;2023-04-24T14:40:04;19.90;95.70
23073;DHT22;67971;51.046;3.732;2023-04-24T14:42:31;19.40;96.30
23073;DHT22;67971;51.046;3.732;2023-04-24T14:44:57;19.40;96.70
23073;DHT22;67971;51.046;3.732;2023-04-24T14:47:23;19.10;97.70
23073;DHT22;67971;51.046;3.732;2023-04-24T14:49:48;19.10;97.60
23073;DHT22;67971;51.046;3.732;2023-04-24T14:52:14;18.80;97.90
23073;DHT22;67971;51.046;3.732;2023-04-24T14:54:41;18.80;97.70
23073;DHT22;67971;51.046;3.732;2023-04-24T14:57:15;18.30;98.10
23073;DHT22;67971;51.046;3.732;2023-04-24T14:59:40;18.00;98.60
23073;DHT22;67971;51.046;3.732;2023-04-24T15:02:06;17.70;98.90
23073;DHT22;67971;51.046;3.732;2023-04-24T15:04:32;17.70;99.30
23073;DHT22;67971;51.046;3.732;2023-04-24T15:06:58;17.40;99.90
23073;DHT22;67971;51.046;3.732;2023-04-24T15:09:24;17.10;99.90
23073;DHT22;67971;51.046;3.732;2023-04-24T15:11:50;17.30;99.90
23073;DHT22;67971;51.046;3.732;2023-04-24T15:14:17;17.20;99.90
23073;DHT22;67971;51.046;3.732;2023-04-24T15:16:43;17.30;99.90
23073;DHT22;67971;51.046;3.732;2023-04-24T15:19:09;17.10;99.20
23073;DHT22;67971;51.046;3.732;2023-04-24T15:21:38;16.90;99.50
23073;DHT22;67971;51.046;3.732;2023-04-24T15:24:06;16.90;99.90
23073;DHT22;67971;51.046;3.732;2023-04-24T15:26:32;17.00;99.90
23073;DHT22;67971;51.046;3.732;2023-04-24T15:28:58;17.10;99.90
23073;DHT22;67971;51.046;3.732;2023-04-24T15:31:24;17.20;99.90
23073;DHT22;67971;51.046;3.732;2023-04-24T15:33:50;17.30;99.90
23073;DHT22;67971;51.046;3.732;2023-04-24T15:36:16;17.30;99.90